Time;durP1;ratioP1;P1;durP2;ratioP2;P2;SDS_P1;SDS_P2;PMS_P1;PMS_P2;Temp;Humidity;BMP_temperature;BMP_pressure;BME280_temperature;BME280_humidity;BME280_pressure;Samples;Min_cycle;Max_cycle;Signal;HPM_P1;HPM_P2
2023/08/26 00:01:31;;;;;;;43.55;31.77;;;;;;;;;;5027984;28;20021;-73
2023/08/26 00:03:57;;;;;;;47.15;34.88;;;;;;;;;;5030422;28;20044;-73
2023/08/26 00:06:23;;;;;;;45.05;33.45;;;;;;;;;;5031080;28;20036;-73
2023/08/26 00:08:51;;;;;;;41.70;31.25;;;;;;;;;;5030502;28;20052;-72
2023/08/26 00:11:18;;;;;;;49.38;36.13;;;;;;;;;;5031712;28;20038;-74
2023/08/26 00:13:44;;;;;;;52.00;38.75;;;;;;;;;;5031689;28;20075;-74
2023/08/26 00:16:11;;;;;;;49.33;38.13;;;;;;;;;;5032625;28;20045;-74
2023/08/26 00:18:37;;;;;;;47.67;35.22;;;;;;;;;;5033265;28;20028;-73
2023/08/26 00:21:03;;;;;;;47.05;34.83;;;;;;;;;;5033109;28;20018;-74
2023/08/26 00:23:31;;;;;;;47.97;34.75;;;;;;;;;;5032604;28;20360;-73
2023/08/26 00:25:57;;;;;;;43.75;32.58;;;;;;;;;;5032195;28;20479;-75
2023/08/26 00:28:23;;;;;;;45.83;34.17;;;;;;;;;;5030923;28;20514;-74
2023/08/26 00:30:58;;;;;;;49.85;37.90;;;;;;;;;;5031034;28;20065;-74
2023/08/26 00:33:24;;;;;;;47.20;34.90;;;;;;;;;;5030811;28;20021;-74
2023/08/26 00:35:50;;;;;;;50.28;37.22;;;;;;;;;;5030552;28;20090;-72
2023/08/26 00:38:16;;;;;;;54.22;40.08;;;;;;;;;;5030704;28;20022;-74
2023/08/26 00:40:42;;;;;;;47.15;36.53;;;;;;;;;;5030713;28;20030;-73
2023/08/26 00:43:09;;;;;;;50.72;35.20;;;;;;;;;;5030233;28;20026;-73
2023/08/26 00:45:39;;;;;;;53.22;38.97;;;;;;;;;;5030641;28;20108;-73
2023/08/26 00:48:08;;;;;;;50.72;36.47;;;;;;;;;;5030256;28;20416;-73
2023/08/26 00:50:34;;;;;;;46.65;35.97;;;;;;;;;;5030527;28;20038;-73
2023/08/26 00:53:00;;;;;;;52.28;37.15;;;;;;;;;;5030095;28;20025;-73
2023/08/26 00:55:26;;;;;;;51.28;38.83;;;;;;;;;;5030408;28;20087;-73
2023/08/26 00:57:52;;;;;;;47.10;36.50;;;;;;;;;;5031238;28;20021;-74
2023/08/26 01:00:18;;;;;;;54.15;37.17;;;;;;;;;;5031966;28;20105;-73
2023/08/26 01:02:44;;;;;;;49.63;37.92;;;;;;;;;;5030276;28;20475;-74
2023/08/26 01:05:10;;;;;;;49.05;36.08;;;;;;;;;;5030665;28;20071;-74
2023/08/26 01:07:36;;;;;;;49.22;37.35;;;;;;;;;;5031716;28;20022;-74
2023/08/26 01:10:03;;;;;;;59.22;43.80;;;;;;;;;;5031902;28;20518;-73
2023/08/26 01:12:32;;;;;;;53.92;39.83;;;;;;;;;;5031503;28;20035;-74
2023/08/26 01:15:01;;;;;;;51.53;38.65;;;;;;;;;;5031859;28;20392;-74
2023/08/26 01:17:27;;;;;;;59.22;43.58;;;;;;;;;;5032643;28;20387;-73
2023/08/26 01:19:55;;;;;;;57.03;41.33;;;;;;;;;;5034321;28;20044;-73
2023/08/26 01:22:24;;;;;;;54.22;40.10;;;;;;;;;;5031747;28;20365;-73
2023/08/26 01:24:50;;;;;;;53.90;39.33;;;;;;;;;;5031143;28;20057;-74
2023/08/26 01:27:16;;;;;;;58.85;40.17;;;;;;;;;;5031792;28;20033;-73
2023/08/26 01:29:42;;;;;;;53.55;39.17;;;;;;;;;;5031144;28;20482;-75
2023/08/26 01:32:11;;;;;;;62.42;45.85;;;;;;;;;;5026907;28;20021;-74
2023/08/26 01:34:38;;;;;;;56.25;39.95;;;;;;;;;;5024187;28;20414;-74
2023/08/26 01:37:05;;;;;;;56.42;39.00;;;;;;;;;;5033373;28;20528;-75
2023/08/26 01:39:31;;;;;;;53.35;39.83;;;;;;;;;;5033600;28;20025;-75
2023/08/26 01:41:58;;;;;;;53.67;38.55;;;;;;;;;;5032487;28;20017;-74
2023/08/26 01:44:24;;;;;;;53.47;39.55;;;;;;;;;;5033295;28;20053;-74
2023/08/26 01:46:50;;;;;;;50.97;39.05;;;;;;;;;;5033160;28;20104;-74
2023/08/26 01:49:16;;;;;;;53.40;38.45;;;;;;;;;;5033313;28;20037;-74
2023/08/26 01:51:42;;;;;;;62.67;45.78;;;;;;;;;;5033025;28;20033;-74
2023/08/26 01:54:08;;;;;;;52.70;39.00;;;;;;;;;;5032803;28;20022;-75
2023/08/26 01:56:34;;;;;;;51.33;39.28;;;;;;;;;;5034049;28;20536;-74
2023/08/26 01:59:00;;;;;;;62.17;40.25;;;;;;;;;;5041011;28;20029;-73
2023/08/26 02:01:26;;;;;;;58.20;40.03;;;;;;;;;;5050804;28;20068;-74
2023/08/26 02:03:52;;;;;;;56.50;40.30;;;;;;;;;;5049465;28;20053;-74
2023/08/26 02:06:18;;;;;;;59.42;41.72;;;;;;;;;;5057245;28;20048;-73
2023/08/26 02:08:44;;;;;;;55.25;40.42;;;;;;;;;;5043047;28;20025;-75
2023/08/26 02:11:10;;;;;;;57.65;38.88;;;;;;;;;;5031619;28;20029;-75
2023/08/26 02:13:36;;;;;;;55.95;38.25;;;;;;;;;;5032249;28;20025;-74
2023/08/26 02:16:02;;;;;;;49.03;37.30;;;;;;;;;;5032930;28;20036;-75
2023/08/26 02:18:28;;;;;;;51.30;37.65;;;;;;;;;;5033407;28;20430;-74
2023/08/26 02:20:55;;;;;;;56.60;39.55;;;;;;;;;;5032568;28;20116;-75
2023/08/26 02:23:21;;;;;;;52.72;37.03;;;;;;;;;;5032252;28;20376;-74
2023/08/26 02:25:47;;;;;;;55.40;38.35;;;;;;;;;;5032935;28;20025;-75
2023/08/26 02:28:13;;;;;;;53.83;37.88;;;;;;;;;;5032987;28;20033;-74
2023/08/26 02:30:39;;;;;;;54.53;38.10;;;;;;;;;;5033530;28;20034;-75
2023/08/26 02:33:06;;;;;;;55.05;37.30;;;;;;;;;;5031883;28;20037;-75
2023/08/26 02:35:33;;;;;;;59.88;40.55;;;;;;;;;;5034619;28;20017;-75
2023/08/26 02:37:59;;;;;;;60.17;40.03;;;;;;;;;;5033776;28;20022;-74
2023/08/26 02:40:25;;;;;;;52.67;37.97;;;;;;;;;;5032317;28;20030;-74
2023/08/26 02:42:51;;;;;;;55.78;38.67;;;;;;;;;;5031934;28;20442;-73
2023/08/26 02:45:17;;;;;;;59.28;42.78;;;;;;;;;;5032174;28;20068;-74
2023/08/26 02:47:43;;;;;;;57.78;41.08;;;;;;;;;;5032400;28;20032;-73
2023/08/26 02:50:09;;;;;;;55.17;39.40;;;;;;;;;;5032512;28;20025;-73
2023/08/26 02:52:35;;;;;;;48.35;34.80;;;;;;;;;;5031813;28;20100;-73
2023/08/26 02:55:01;;;;;;;52.55;38.20;;;;;;;;;;5030946;28;20124;-73
2023/08/26 02:57:27;;;;;;;52.78;37.47;;;;;;;;;;5032044;28;20428;-74
2023/08/26 02:59:53;;;;;;;57.55;38.67;;;;;;;;;;5032162;28;20035;-73
2023/08/26 03:02:24;;;;;;;52.28;37.15;;;;;;;;;;5031619;28;20053;-74
2023/08/26 03:04:50;;;;;;;50.88;36.28;;;;;;;;;;5032270;28;20404;-72
2023/08/26 03:07:16;;;;;;;60.72;43.13;;;;;;;;;;5032278;28;20478;-73
2023/08/26 03:09:42;;;;;;;55.20;39.20;;;;;;;;;;5032970;28;20036;-74
2023/08/26 03:12:09;;;;;;;59.55;40.92;;;;;;;;;;5032590;28;20017;-75
2023/08/26 03:14:35;;;;;;;57.65;38.83;;;;;;;;;;5033408;28;20033;-76
2023/08/26 03:17:01;;;;;;;56.78;40.75;;;;;;;;;;5033070;28;20483;-75
2023/08/26 03:19:27;;;;;;;65.90;42.28;;;;;;;;;;5033013;28;20045;-77
2023/08/26 03:21:53;;;;;;;61.70;40.85;;;;;;;;;;5032698;28;20467;-76
2023/08/26 03:24:19;;;;;;;58.78;39.72;;;;;;;;;;5032806;28;20092;-74
2023/08/26 03:26:45;;;;;;;65.85;43.33;;;;;;;;;;5032900;28;20033;-75
2023/08/26 03:29:11;;;;;;;60.28;39.75;;;;;;;;;;5032957;28;20379;-74
2023/08/26 03:31:38;;;;;;;56.05;39.72;;;;;;;;;;5032628;28;20022;-75
2023/08/26 03:34:04;;;;;;;63.03;43.63;;;;;;;;;;5032637;28;20094;-75
2023/08/26 03:36:30;;;;;;;66.82;44.92;;;;;;;;;;5032991;28;20025;-73
2023/08/26 03:38:56;;;;;;;59.53;39.72;;;;;;;;;;5033080;28;20487;-74
2023/08/26 03:41:22;;;;;;;63.88;41.47;;;;;;;;;;5032962;28;20038;-72
2023/08/26 03:43:48;;;;;;;64.13;42.88;;;;;;;;;;5032540;28;20030;-74
2023/08/26 03:46:14;;;;;;;71.97;46.58;;;;;;;;;;5032808;28;20025;-74
2023/08/26 03:48:40;;;;;;;79.78;50.60;;;;;;;;;;5032254;28;20476;-73
2023/08/26 03:51:07;;;;;;;75.05;49.35;;;;;;;;;;5031792;28;20111;-74
2023/08/26 03:53:32;;;;;;;74.90;49.72;;;;;;;;;;5031970;28;20018;-75
2023/08/26 03:56:00;;;;;;;81.95;51.50;;;;;;;;;;5032014;28;20029;-75
2023/08/26 03:58:27;;;;;;;89.32;54.33;;;;;;;;;;5032088;28;20491;-74
2023/08/26 04:01:04;;;;;;;85.30;54.35;;;;;;;;;;5032116;28;20306;-74
2023/08/26 04:03:30;;;;;;;87.78;53.75;;;;;;;;;;5032020;28;20486;-75
2023/08/26 04:06:03;;;;;;;92.05;56.95;;;;;;;;;;5033909;28;20087;-75
2023/08/26 04:08:30;;;;;;;91.60;55.65;;;;;;;;;;5033985;28;20032;-75
2023/08/26 04:10:56;;;;;;;94.93;58.65;;;;;;;;;;5033725;28;20031;-75
2023/08/26 04:13:24;;;;;;;92.03;56.78;;;;;;;;;;5033123;28;20399;-75
2023/08/26 04:15:53;;;;;;;100.30;58.35;;;;;;;;;;5033810;28;20026;-75
2023/08/26 04:18:19;;;;;;;96.35;58.20;;;;;;;;;;5033707;28;20105;-75
2023/08/26 04:20:45;;;;;;;95.45;56.72;;;;;;;;;;5033672;28;20036;-74
2023/08/26 04:23:11;;;;;;;99.65;57.78;;;;;;;;;;5033599;28;20356;-75
2023/08/26 04:25:38;;;;;;;89.32;53.60;;;;;;;;;;5033638;28;20449;-75
2023/08/26 04:28:04;;;;;;;93.10;52.03;;;;;;;;;;5032687;28;20061;-76
2023/08/26 04:30:31;;;;;;;85.80;51.00;;;;;;;;;;5033036;28;20068;-75
2023/08/26 04:32:57;;;;;;;95.25;53.72;;;;;;;;;;5033077;28;20025;-74
2023/08/26 04:35:23;;;;;;;81.68;48.38;;;;;;;;;;5032312;28;20052;-74
2023/08/26 04:37:49;;;;;;;84.25;50.05;;;;;;;;;;5032597;28;20487;-75
2023/08/26 04:40:15;;;;;;;89.63;51.28;;;;;;;;;;5032149;28;20033;-75
2023/08/26 04:42:42;;;;;;;75.07;45.97;;;;;;;;;;5031677;28;20104;-75
2023/08/26 04:45:09;;;;;;;87.55;47.30;;;;;;;;;;5031666;28;20057;-75
2023/08/26 04:47:36;;;;;;;84.05;46.85;;;;;;;;;;5032015;28;20036;-74
2023/08/26 04:50:04;;;;;;;83.13;46.20;;;;;;;;;;5038590;28;20030;-75
2023/08/26 04:52:30;;;;;;;71.25;42.15;;;;;;;;;;5031838;28;20028;-75
2023/08/26 04:54:56;;;;;;;75.22;41.45;;;;;;;;;;5032816;28;20093;-76
2023/08/26 04:57:22;;;;;;;73.78;42.10;;;;;;;;;;5032521;28;20022;-76
2023/08/26 04:59:48;;;;;;;73.75;42.10;;;;;;;;;;5032288;28;20095;-75
2023/08/26 05:02:14;;;;;;;74.90;41.65;;;;;;;;;;5033510;28;20089;-75
2023/08/26 05:04:40;;;;;;;68.10;41.90;;;;;;;;;;5036846;28;20033;-76
2023/08/26 05:07:06;;;;;;;68.78;39.50;;;;;;;;;;5036867;28;20048;-75
2023/08/26 05:09:32;;;;;;;64.00;37.75;;;;;;;;;;5036502;28;20480;-76
2023/08/26 05:11:58;;;;;;;68.45;39.83;;;;;;;;;;5036342;28;20056;-75
2023/08/26 05:14:24;;;;;;;63.85;37.58;;;;;;;;;;5036607;28;20030;-76
2023/08/26 05:16:51;;;;;;;66.30;38.10;;;;;;;;;;5032273;28;20014;-74
2023/08/26 05:19:17;;;;;;;62.00;36.38;;;;;;;;;;5035039;28;20021;-76
2023/08/26 05:21:43;;;;;;;63.10;37.47;;;;;;;;;;5034877;28;20031;-75
2023/08/26 05:24:09;;;;;;;65.43;39.53;;;;;;;;;;5032773;28;20395;-75
2023/08/26 05:26:36;;;;;;;61.67;36.65;;;;;;;;;;5035357;28;20546;-75
2023/08/26 05:29:02;;;;;;;63.33;37.90;;;;;;;;;;5034674;28;20021;-75
2023/08/26 05:31:28;;;;;;;59.50;36.90;;;;;;;;;;5032848;28;20034;-74
2023/08/26 05:33:54;;;;;;;54.90;33.40;;;;;;;;;;5034032;28;20060;-75
2023/08/26 05:36:20;;;;;;;64.57;40.25;;;;;;;;;;5035682;28;20021;-74
2023/08/26 05:38:46;;;;;;;56.03;33.83;;;;;;;;;;5032832;28;20072;-75
2023/08/26 05:41:12;;;;;;;54.45;35.10;;;;;;;;;;5034554;28;20028;-74
2023/08/26 05:43:38;;;;;;;56.85;34.38;;;;;;;;;;5034093;28;20041;-76
2023/08/26 05:46:04;;;;;;;56.30;32.00;;;;;;;;;;5034418;28;20513;-74
2023/08/26 05:48:30;;;;;;;53.03;31.67;;;;;;;;;;5032930;28;20032;-74
2023/08/26 05:50:59;;;;;;;55.78;34.20;;;;;;;;;;5034611;28;20029;-75
2023/08/26 05:53:25;;;;;;;55.45;32.38;;;;;;;;;;5033544;28;20033;-74
2023/08/26 05:55:51;;;;;;;48.40;31.13;;;;;;;;;;5034280;28;20100;-75
2023/08/26 05:58:17;;;;;;;54.28;31.38;;;;;;;;;;5033043;28;20109;-75
2023/08/26 06:00:43;;;;;;;46.20;29.05;;;;;;;;;;5033120;28;20029;-74
2023/08/26 06:03:09;;;;;;;50.28;30.73;;;;;;;;;;5033550;28;20533;-77
2023/08/26 06:05:35;;;;;;;50.78;30.67;;;;;;;;;;5034585;28;20042;-78
2023/08/26 06:08:01;;;;;;;52.08;30.63;;;;;;;;;;5034700;28;20063;-77
2023/08/26 06:10:27;;;;;;;49.35;30.02;;;;;;;;;;5034611;28;20135;-73
2023/08/26 06:12:53;;;;;;;50.33;30.23;;;;;;;;;;5033657;28;20029;-75
2023/08/26 06:15:19;;;;;;;47.38;28.58;;;;;;;;;;5033001;28;20025;-74
2023/08/26 06:17:45;;;;;;;53.40;27.33;;;;;;;;;;5033033;28;20025;-74
2023/08/26 06:20:11;;;;;;;43.05;27.85;;;;;;;;;;5033749;28;20030;-74
2023/08/26 06:22:37;;;;;;;40.47;27.67;;;;;;;;;;5033644;28;20021;-75
2023/08/26 06:25:03;;;;;;;35.28;23.83;;;;;;;;;;5033778;28;20094;-75
2023/08/26 06:27:29;;;;;;;36.42;23.35;;;;;;;;;;5034001;28;20029;-75
2023/08/26 06:29:58;;;;;;;41.40;25.10;;;;;;;;;;5034744;28;20034;-77
2023/08/26 06:32:24;;;;;;;36.08;23.33;;;;;;;;;;5036117;28;20018;-77
2023/08/26 06:34:50;;;;;;;37.17;22.67;;;;;;;;;;5035392;28;20032;-78
2023/08/26 06:37:16;;;;;;;37.65;21.63;;;;;;;;;;5035204;28;20057;-77
2023/08/26 06:39:42;;;;;;;36.20;23.17;;;;;;;;;;5038001;28;20020;-77
2023/08/26 06:42:08;;;;;;;36.28;21.27;;;;;;;;;;5033996;28;20021;-77
2023/08/26 06:44:34;;;;;;;35.78;21.08;;;;;;;;;;5033837;28;20446;-78
2023/08/26 06:47:00;;;;;;;35.13;21.13;;;;;;;;;;5034133;28;20017;-76
2023/08/26 06:49:26;;;;;;;30.58;18.48;;;;;;;;;;5033534;28;20379;-75
2023/08/26 06:51:52;;;;;;;30.00;19.13;;;;;;;;;;5033413;28;20037;-75
2023/08/26 06:54:18;;;;;;;23.42;15.77;;;;;;;;;;5033297;28;20525;-75
2023/08/26 06:56:44;;;;;;;24.35;15.82;;;;;;;;;;5033076;28;20033;-75
2023/08/26 06:59:10;;;;;;;28.20;15.43;;;;;;;;;;5032875;28;20036;-75
2023/08/26 07:01:36;;;;;;;23.67;14.82;;;;;;;;;;5032990;28;20386;-75
2023/08/26 07:04:06;;;;;;;31.55;16.45;;;;;;;;;;5032443;28;20025;-75
2023/08/26 07:06:32;;;;;;;25.73;14.27;;;;;;;;;;5033188;28;20032;-75
2023/08/26 07:08:58;;;;;;;25.85;14.80;;;;;;;;;;5033129;28;20108;-76
2023/08/26 07:11:24;;;;;;;22.48;13.30;;;;;;;;;;5033209;28;20112;-74
2023/08/26 07:13:50;;;;;;;24.65;14.00;;;;;;;;;;5032874;28;20029;-74
2023/08/26 07:16:16;;;;;;;21.33;11.93;;;;;;;;;;5033096;28;20032;-74
2023/08/26 07:18:42;;;;;;;18.13;10.70;;;;;;;;;;5033212;28;20057;-74
2023/08/26 07:21:08;;;;;;;18.15;11.07;;;;;;;;;;5032154;28;20025;-75
2023/08/26 07:23:34;;;;;;;19.60;11.00;;;;;;;;;;5032941;28;20029;-75
2023/08/26 07:26:00;;;;;;;17.17;10.18;;;;;;;;;;5032871;28;20022;-75
2023/08/26 07:28:26;;;;;;;25.70;10.50;;;;;;;;;;5033104;28;20456;-75
2023/08/26 07:30:53;;;;;;;16.10;9.13;;;;;;;;;;5033358;28;20079;-75
2023/08/26 07:33:19;;;;;;;17.83;11.13;;;;;;;;;;5033135;28;20132;-74
2023/08/26 07:35:46;;;;;;;14.45;10.43;;;;;;;;;;5034534;28;20022;-75
2023/08/26 07:38:12;;;;;;;17.42;10.73;;;;;;;;;;5033541;28;20026;-76
2023/08/26 07:40:38;;;;;;;16.42;10.25;;;;;;;;;;5033892;28;20506;-75
2023/08/26 07:43:04;;;;;;;22.85;9.65;;;;;;;;;;5034239;28;20034;-77
2023/08/26 07:45:30;;;;;;;15.00;10.10;;;;;;;;;;5034495;28;20037;-74
2023/08/26 07:47:57;;;;;;;13.98;8.40;;;;;;;;;;5032529;28;20398;-74
2023/08/26 07:50:23;;;;;;;14.75;8.52;;;;;;;;;;5032278;28;20028;-75
2023/08/26 07:52:49;;;;;;;12.35;7.38;;;;;;;;;;5031818;28;20037;-75
2023/08/26 07:55:15;;;;;;;11.95;6.90;;;;;;;;;;5031950;28;20367;-75
2023/08/26 07:57:41;;;;;;;10.80;7.05;;;;;;;;;;5032468;28;20029;-76
2023/08/26 08:00:08;;;;;;;12.25;5.68;;;;;;;;;;5032423;28;20041;-75
2023/08/26 08:02:34;;;;;;;15.27;6.00;;;;;;;;;;5031901;28;20033;-75
2023/08/26 08:05:00;;;;;;;9.77;5.43;;;;;;;;;;5033226;28;20476;-75
2023/08/26 08:07:26;;;;;;;10.88;4.65;;;;;;;;;;5032095;28;20026;-76
2023/08/26 08:09:53;;;;;;;11.45;4.38;;;;;;;;;;5031843;28;20038;-76
2023/08/26 08:12:19;;;;;;;10.32;4.97;;;;;;;;;;5031284;28;20079;-74
2023/08/26 08:14:45;;;;;;;10.50;4.40;;;;;;;;;;5032134;28;20037;-75
2023/08/26 08:17:11;;;;;;;11.68;4.70;;;;;;;;;;5032885;28;20044;-74
2023/08/26 08:19:41;;;;;;;11.15;4.75;;;;;;;;;;5032494;28;20033;-75
2023/08/26 08:22:08;;;;;;;11.27;4.28;;;;;;;;;;5038580;28;20017;-76
2023/08/26 08:24:33;;;;;;;8.75;3.55;;;;;;;;;;5049050;28;20467;-75
2023/08/26 08:26:59;;;;;;;12.25;6.07;;;;;;;;;;5032629;28;20032;-76
2023/08/26 08:29:26;;;;;;;12.57;4.80;;;;;;;;;;5031572;28;20410;-75
2023/08/26 08:31:51;;;;;;;11.88;4.32;;;;;;;;;;5031107;28;20423;-75
2023/08/26 08:34:17;;;;;;;11.48;4.93;;;;;;;;;;5031583;28;20032;-74
2023/08/26 08:36:43;;;;;;;11.32;4.93;;;;;;;;;;5033346;28;20029;-75
2023/08/26 08:39:09;;;;;;;10.65;4.82;;;;;;;;;;5037796;28;20494;-74
2023/08/26 08:41:36;;;;;;;14.80;5.32;;;;;;;;;;5039333;28;20055;-74
2023/08/26 08:44:03;;;;;;;11.98;5.00;;;;;;;;;;5038414;28;20021;-74
2023/08/26 08:46:30;;;;;;;13.13;4.97;;;;;;;;;;5040332;28;20057;-75
2023/08/26 08:48:56;;;;;;;18.48;6.28;;;;;;;;;;5039691;28;20037;-74
2023/08/26 08:51:23;;;;;;;20.95;10.00;;;;;;;;;;5037525;28;20030;-75
2023/08/26 08:53:50;;;;;;;11.15;4.32;;;;;;;;;;5038312;28;20551;-77
2023/08/26 08:56:16;;;;;;;16.70;7.03;;;;;;;;;;5038371;28;20093;-74
2023/08/26 08:58:45;;;;;;;8.82;4.03;;;;;;;;;;5038008;28;20515;-73
2023/08/26 09:01:11;;;;;;;14.30;5.95;;;;;;;;;;5038192;28;20051;-75
2023/08/26 09:03:37;;;;;;;12.55;4.13;;;;;;;;;;5037673;28;20026;-73
2023/08/26 09:06:03;;;;;;;13.25;4.65;;;;;;;;;;5038224;28;20030;-75
2023/08/26 09:08:29;;;;;;;9.43;4.20;;;;;;;;;;5038232;28;20087;-73
2023/08/26 09:10:55;;;;;;;7.43;3.78;;;;;;;;;;5038130;28;20061;-76
2023/08/26 09:13:21;;;;;;;7.97;3.60;;;;;;;;;;5038061;28;20526;-76
2023/08/26 09:15:47;;;;;;;7.90;3.25;;;;;;;;;;5037684;28;20071;-77
2023/08/26 09:18:15;;;;;;;10.32;3.70;;;;;;;;;;5038636;28;20030;-76
2023/08/26 09:20:41;;;;;;;8.20;3.20;;;;;;;;;;5038012;28;20087;-75
2023/08/26 09:23:10;;;;;;;6.93;3.13;;;;;;;;;;5037949;28;20025;-72
2023/08/26 09:25:38;;;;;;;6.93;3.10;;;;;;;;;;5038058;28;20069;-74
2023/08/26 09:28:04;;;;;;;11.63;2.97;;;;;;;;;;5037768;28;20391;-71
2023/08/26 09:30:30;;;;;;;9.00;2.75;;;;;;;;;;5037529;28;20025;-73
2023/08/26 09:32:56;;;;;;;12.10;2.75;;;;;;;;;;5037221;28;20056;-73
2023/08/26 09:35:22;;;;;;;7.57;3.10;;;;;;;;;;5037686;28;20030;-73
2023/08/26 09:37:55;;;;;;;6.50;2.58;;;;;;;;;;5037252;28;20116;-72
2023/08/26 09:40:22;;;;;;;9.65;2.33;;;;;;;;;;5037835;28;20037;-72
2023/08/26 09:42:47;;;;;;;4.35;1.90;;;;;;;;;;5037222;28;20025;-73
2023/08/26 09:45:17;;;;;;;6.03;2.00;;;;;;;;;;5037667;28;20026;-72
2023/08/26 09:47:42;;;;;;;7.13;2.17;;;;;;;;;;5037069;28;20021;-74
2023/08/26 09:50:10;;;;;;;10.80;2.28;;;;;;;;;;5033574;28;20033;-72
2023/08/26 09:52:42;;;;;;;4.80;2.08;;;;;;;;;;5034038;28;20065;-73
2023/08/26 09:55:09;;;;;;;7.72;2.80;;;;;;;;;;5034416;28;20498;-73
2023/08/26 09:57:35;;;;;;;6.72;2.65;;;;;;;;;;5034419;28;20040;-72
2023/08/26 10:00:01;;;;;;;6.88;1.85;;;;;;;;;;5034189;28;20018;-73
2023/08/26 10:02:30;;;;;;;11.93;2.30;;;;;;;;;;5033894;28;20108;-73
2023/08/26 10:04:57;;;;;;;5.38;1.80;;;;;;;;;;5034165;28;20022;-74
2023/08/26 10:07:24;;;;;;;5.35;1.88;;;;;;;;;;5034042;28;20100;-74
2023/08/26 10:10:11;;;;;;;8.73;2.63;;;;;;;;;;5034043;28;20107;-74
2023/08/26 10:12:40;;;;;;;9.00;2.42;;;;;;;;;;5033867;28;20053;-75
2023/08/26 10:15:08;;;;;;;7.65;2.30;;;;;;;;;;5033914;28;20128;-74
2023/08/26 10:17:34;;;;;;;11.68;2.40;;;;;;;;;;5033692;28;20026;-72
2023/08/26 10:20:01;;;;;;;3.67;1.83;;;;;;;;;;5033448;28;20022;-73
2023/08/26 10:22:27;;;;;;;8.27;1.67;;;;;;;;;;5035520;28;20464;-76
2023/08/26 10:24:53;;;;;;;6.25;1.70;;;;;;;;;;5033657;28;20079;-71
2023/08/26 10:27:19;;;;;;;6.35;2.20;;;;;;;;;;5033339;28;20030;-73
2023/08/26 10:29:46;;;;;;;4.38;1.65;;;;;;;;;;5033561;28;20439;-72
2023/08/26 10:32:17;;;;;;;8.80;1.52;;;;;;;;;;5032805;28;20104;-70
2023/08/26 10:34:52;;;;;;;7.35;1.60;;;;;;;;;;5033426;28;20018;-71
2023/08/26 10:37:18;;;;;;;4.63;1.35;;;;;;;;;;5033435;28;20017;-72
2023/08/26 10:39:44;;;;;;;5.90;1.50;;;;;;;;;;5033468;28;20079;-72
2023/08/26 10:42:12;;;;;;;8.05;1.42;;;;;;;;;;5032609;28;20022;-71
2023/08/26 10:44:39;;;;;;;9.68;1.90;;;;;;;;;;5033115;28;20048;-73
2023/08/26 10:47:05;;;;;;;5.70;2.15;;;;;;;;;;5033034;28;20091;-72
2023/08/26 10:49:31;;;;;;;8.00;2.55;;;;;;;;;;5033152;28;20455;-71
2023/08/26 10:52:16;;;;;;;7.70;2.97;;;;;;;;;;5032604;28;20040;-71
2023/08/26 10:54:46;;;;;;;6.57;2.72;;;;;;;;;;5033043;28;20744;-73
2023/08/26 10:57:12;;;;;;;11.18;2.63;;;;;;;;;;5033063;28;20029;-72
2023/08/26 10:59:40;;;;;;;6.50;2.13;;;;;;;;;;5032678;28;20037;-72
2023/08/26 11:02:07;;;;;;;7.65;1.83;;;;;;;;;;5032377;28;20029;-72
2023/08/26 11:04:34;;;;;;;8.18;1.67;;;;;;;;;;5032927;28;20022;-74
2023/08/26 11:07:00;;;;;;;5.43;1.73;;;;;;;;;;5032481;28;20373;-72
2023/08/26 11:09:26;;;;;;;8.90;1.88;;;;;;;;;;5032821;28;20026;-73
2023/08/26 11:11:52;;;;;;;6.13;1.75;;;;;;;;;;5032411;28;20570;-73
2023/08/26 11:14:18;;;;;;;8.85;2.10;;;;;;;;;;5032967;28;20037;-74
2023/08/26 11:16:45;;;;;;;6.68;1.88;;;;;;;;;;5032734;28;20028;-72
2023/08/26 11:19:11;;;;;;;7.75;1.80;;;;;;;;;;5033020;28;20446;-74
2023/08/26 11:21:37;;;;;;;5.15;1.98;;;;;;;;;;5032801;28;20029;-73
2023/08/26 11:24:04;;;;;;;8.23;3.17;;;;;;;;;;5032552;28;20476;-72
2023/08/26 11:26:30;;;;;;;6.30;1.65;;;;;;;;;;5032510;28;20052;-73
2023/08/26 11:29:00;;;;;;;7.55;1.88;;;;;;;;;;5032352;28;20028;-72
2023/08/26 11:31:26;;;;;;;8.55;2.70;;;;;;;;;;5032213;28;20398;-72
2023/08/26 11:33:52;;;;;;;5.43;1.27;;;;;;;;;;5032028;28;20439;-73
2023/08/26 11:36:22;;;;;;;4.57;1.35;;;;;;;;;;5032311;28;20100;-72
2023/08/26 11:38:48;;;;;;;4.53;1.50;;;;;;;;;;5032299;28;20060;-73
2023/08/26 11:41:14;;;;;;;6.72;1.67;;;;;;;;;;5032160;28;20180;-72
2023/08/26 11:43:40;;;;;;;4.97;1.65;;;;;;;;;;5031794;28;20038;-73
2023/08/26 11:46:06;;;;;;;13.07;8.00;;;;;;;;;;5032490;28;20029;-75
2023/08/26 11:48:36;;;;;;;8.57;1.55;;;;;;;;;;5032607;28;20060;-73
2023/08/26 11:51:03;;;;;;;7.30;4.07;;;;;;;;;;5032486;28;20029;-72
2023/08/26 11:53:29;;;;;;;4.85;1.50;;;;;;;;;;5032811;28;20479;-72
2023/08/26 11:55:55;;;;;;;4.22;1.35;;;;;;;;;;5032424;28;20511;-71
2023/08/26 11:58:22;;;;;;;3.63;1.75;;;;;;;;;;5032574;28;20022;-72
2023/08/26 12:00:48;;;;;;;5.28;1.10;;;;;;;;;;5032602;28;20030;-72
2023/08/26 12:03:14;;;;;;;7.18;1.45;;;;;;;;;;5032008;28;20109;-72
2023/08/26 12:05:49;;;;;;;4.28;1.70;;;;;;;;;;5032208;28;20036;-73
2023/08/26 12:08:17;;;;;;;6.88;1.40;;;;;;;;;;5032792;28;20094;-71
2023/08/26 12:10:46;;;;;;;9.10;1.67;;;;;;;;;;5032322;28;20028;-73
2023/08/26 12:13:12;;;;;;;7.05;1.52;;;;;;;;;;5031651;28;20026;-76
2023/08/26 12:15:41;;;;;;;7.03;1.48;;;;;;;;;;5031505;28;20502;-73
2023/08/26 12:18:09;;;;;;;7.43;2.45;;;;;;;;;;5031752;28;20021;-77
2023/08/26 12:20:35;;;;;;;6.38;1.90;;;;;;;;;;5031661;28;20083;-73
2023/08/26 12:23:02;;;;;;;6.47;1.27;;;;;;;;;;5031452;28;20455;-73
2023/08/26 12:25:32;;;;;;;3.72;1.10;;;;;;;;;;5032393;28;20052;-75
2023/08/26 12:28:13;;;;;;;7.82;1.33;;;;;;;;;;5032246;28;20025;-77
2023/08/26 12:30:39;;;;;;;5.75;1.80;;;;;;;;;;5032063;28;20045;-78
2023/08/26 12:33:09;;;;;;;6.32;1.90;;;;;;;;;;5033152;28;20083;-75
2023/08/26 12:35:35;;;;;;;5.32;2.47;;;;;;;;;;5033712;28;20029;-78
2023/08/26 12:38:05;;;;;;;8.35;2.00;;;;;;;;;;5032896;28;20021;-76
2023/08/26 12:40:34;;;;;;;7.88;2.00;;;;;;;;;;5031636;28;20061;-74
2023/08/26 12:43:02;;;;;;;3.45;1.60;;;;;;;;;;5031179;28;20501;-76
2023/08/26 12:45:29;;;;;;;6.38;2.42;;;;;;;;;;5031623;28;20022;-74
2023/08/26 12:47:55;;;;;;;5.53;1.83;;;;;;;;;;5031978;28;20503;-76
2023/08/26 12:50:21;;;;;;;3.90;1.33;;;;;;;;;;5031609;28;20113;-75
2023/08/26 12:52:48;;;;;;;4.38;1.70;;;;;;;;;;5031091;28;20103;-75
2023/08/26 12:55:14;;;;;;;5.35;1.63;;;;;;;;;;5030643;28;20029;-76
2023/08/26 12:57:40;;;;;;;6.30;1.77;;;;;;;;;;5031046;28;20040;-77
2023/08/26 13:00:06;;;;;;;6.18;2.22;;;;;;;;;;5030585;28;20033;-75
2023/08/26 13:02:33;;;;;;;7.50;1.58;;;;;;;;;;5030945;28;20029;-74
2023/08/26 13:04:59;;;;;;;4.53;1.63;;;;;;;;;;5031649;28;20116;-75
2023/08/26 13:07:25;;;;;;;10.25;2.30;;;;;;;;;;5031701;28;20156;-76
2023/08/26 13:09:51;;;;;;;7.18;1.85;;;;;;;;;;5031687;28;20357;-75
2023/08/26 13:12:17;;;;;;;7.45;1.80;;;;;;;;;;5031574;28;20025;-75
2023/08/26 13:14:43;;;;;;;22.20;11.15;;;;;;;;;;5031062;28;20500;-75
2023/08/26 13:17:09;;;;;;;4.88;1.83;;;;;;;;;;5031168;28;20025;-75
2023/08/26 13:19:35;;;;;;;6.53;2.65;;;;;;;;;;5031657;28;20092;-75
2023/08/26 13:22:02;;;;;;;9.23;1.98;;;;;;;;;;5031712;28;20021;-73
2023/08/26 13:24:28;;;;;;;7.35;1.92;;;;;;;;;;5034584;28;20045;-74
2023/08/26 13:26:54;;;;;;;11.07;2.33;;;;;;;;;;5035103;28;20057;-74
2023/08/26 13:29:20;;;;;;;3.97;1.80;;;;;;;;;;5034984;28;20104;-74
2023/08/26 13:31:46;;;;;;;6.35;2.50;;;;;;;;;;5034476;28;20099;-74
2023/08/26 13:34:12;;;;;;;8.70;2.60;;;;;;;;;;5032784;28;20467;-75
2023/08/26 13:36:38;;;;;;;4.65;2.35;;;;;;;;;;5034925;28;20109;-74
2023/08/26 13:39:04;;;;;;;7.10;2.67;;;;;;;;;;5034859;28;20021;-76
2023/08/26 13:41:30;;;;;;;8.30;2.35;;;;;;;;;;5034878;28;20037;-75
2023/08/26 13:43:56;;;;;;;6.90;2.42;;;;;;;;;;5033625;28;20030;-74
2023/08/26 13:46:22;;;;;;;3.60;2.08;;;;;;;;;;5034727;28;20033;-74
2023/08/26 13:48:48;;;;;;;4.88;2.28;;;;;;;;;;5034152;28;20415;-73
2023/08/26 13:51:14;;;;;;;4.80;1.98;;;;;;;;;;5035045;28;20025;-73
2023/08/26 13:53:40;;;;;;;7.65;2.83;;;;;;;;;;5034826;28;20017;-72
2023/08/26 13:56:06;;;;;;;5.38;2.78;;;;;;;;;;5034266;28;20026;-73
2023/08/26 13:58:33;;;;;;;8.13;2.40;;;;;;;;;;5034292;28;20105;-74
2023/08/26 14:00:59;;;;;;;6.88;2.00;;;;;;;;;;5034209;28;20079;-75
2023/08/26 14:03:28;;;;;;;5.75;2.42;;;;;;;;;;5033576;28;20029;-75
2023/08/26 14:05:54;;;;;;;6.20;3.17;;;;;;;;;;5034089;28;20105;-73
2023/08/26 14:08:20;;;;;;;18.77;9.95;;;;;;;;;;5033624;28;20110;-74
2023/08/26 14:10:46;;;;;;;6.47;2.65;;;;;;;;;;5033816;28;20078;-74
2023/08/26 14:13:12;;;;;;;9.95;2.72;;;;;;;;;;5032929;28;20029;-75
2023/08/26 14:15:46;;;;;;;6.15;2.67;;;;;;;;;;5034239;28;20388;-75
2023/08/26 14:18:12;;;;;;;10.25;3.30;;;;;;;;;;5034346;28;20017;-75
2023/08/26 14:20:38;;;;;;;6.25;2.83;;;;;;;;;;5034502;28;20029;-75
2023/08/26 14:23:04;;;;;;;7.45;2.70;;;;;;;;;;5033806;28;20041;-75
2023/08/26 14:25:30;;;;;;;8.82;3.28;;;;;;;;;;5034620;28;20075;-75